sensor_id;sensor_type;location;lat;lon;timestamp;P1;durP1;ratioP1;P2;durP2;ratioP2
70733;SDS011;58320;48.804;9.252;2022-09-09T00:09:30;7.03;;;3.00;;
70733;SDS011;58320;48.804;9.252;2022-09-09T00:12:15;7.15;;;2.95;;
70733;SDS011;58320;48.804;9.252;2022-09-09T00:15:02;8.73;;;3.38;;
70733;SDS011;58320;48.804;9.252;2022-09-09T00:31:32;8.50;;;3.10;;
70733;SDS011;58320;48.804;9.252;2022-09-09T00:34:02;7.50;;;2.30;;
70733;SDS011;58320;48.804;9.252;2022-09-09T00:36:36;7.67;;;2.53;;
70733;SDS011;58320;48.804;9.252;2022-09-09T00:39:03;5.03;;;2.78;;
70733;SDS011;58320;48.804;9.252;2022-09-09T00:41:43;6.82;;;2.70;;
70733;SDS011;58320;48.804;9.252;2022-09-09T00:44:34;7.60;;;2.72;;
70733;SDS011;58320;48.804;9.252;2022-09-09T00:58:10;6.38;;;2.42;;
70733;SDS011;58320;48.804;9.252;2022-09-09T01:06:11;5.55;;;1.75;;
70733;SDS011;58320;48.804;9.252;2022-09-09T01:12:16;3.38;;;1.60;;
70733;SDS011;58320;48.804;9.252;2022-09-09T01:15:08;3.20;;;1.35;;
70733;SDS011;58320;48.804;9.252;2022-09-09T01:20:53;7.10;;;1.42;;
70733;SDS011;58320;48.804;9.252;2022-09-09T01:26:50;4.53;;;1.60;;
70733;SDS011;58320;48.804;9.252;2022-09-09T01:29:21;6.70;;;1.45;;
70733;SDS011;58320;48.804;9.252;2022-09-09T01:34:17;3.10;;;1.40;;
70733;SDS011;58320;48.804;9.252;2022-09-09T01:36:56;5.25;;;1.58;;
70733;SDS011;58320;48.804;9.252;2022-09-09T01:39:29;3.13;;;1.20;;
70733;SDS011;58320;48.804;9.252;2022-09-09T01:41:57;3.50;;;1.30;;
70733;SDS011;58320;48.804;9.252;2022-09-09T01:44:23;3.20;;;1.30;;
70733;SDS011;58320;48.804;9.252;2022-09-09T01:46:50;7.20;;;1.40;;
70733;SDS011;58320;48.804;9.252;2022-09-09T01:49:16;3.85;;;1.30;;
70733;SDS011;58320;48.804;9.252;2022-09-09T01:51:43;3.42;;;1.42;;
70733;SDS011;58320;48.804;9.252;2022-09-09T01:54:15;2.63;;;1.13;;
70733;SDS011;58320;48.804;9.252;2022-09-09T01:56:51;6.07;;;1.40;;
70733;SDS011;58320;48.804;9.252;2022-09-09T02:08:20;3.50;;;1.50;;
70733;SDS011;58320;48.804;9.252;2022-09-09T02:10:55;4.10;;;1.20;;
70733;SDS011;58320;48.804;9.252;2022-09-09T02:13:27;4.20;;;1.30;;
70733;SDS011;58320;48.804;9.252;2022-09-09T02:21:37;6.22;;;1.30;;
70733;SDS011;58320;48.804;9.252;2022-09-09T02:24:07;4.43;;;1.40;;
70733;SDS011;58320;48.804;9.252;2022-09-09T02:26:36;3.67;;;1.50;;
70733;SDS011;58320;48.804;9.252;2022-09-09T02:29:07;3.92;;;1.60;;
70733;SDS011;58320;48.804;9.252;2022-09-09T02:31:40;6.57;;;1.30;;
70733;SDS011;58320;48.804;9.252;2022-09-09T02:34:07;3.88;;;1.40;;
70733;SDS011;58320;48.804;9.252;2022-09-09T02:36:35;3.03;;;1.15;;
70733;SDS011;58320;48.804;9.252;2022-09-09T02:39:05;3.28;;;1.40;;
70733;SDS011;58320;48.804;9.252;2022-09-09T02:41:36;4.47;;;1.63;;
70733;SDS011;58320;48.804;9.252;2022-09-09T02:44:05;5.00;;;1.43;;
70733;SDS011;58320;48.804;9.252;2022-09-09T02:52:07;5.38;;;1.70;;
70733;SDS011;58320;48.804;9.252;2022-09-09T02:54:41;4.03;;;1.50;;
70733;SDS011;58320;48.804;9.252;2022-09-09T02:59:38;5.88;;;1.52;;
70733;SDS011;58320;48.804;9.252;2022-09-09T03:02:05;4.07;;;1.40;;
70733;SDS011;58320;48.804;9.252;2022-09-09T03:04:31;4.72;;;1.67;;
70733;SDS011;58320;48.804;9.252;2022-09-09T03:06:57;4.03;;;1.47;;
70733;SDS011;58320;48.804;9.252;2022-09-09T03:09:24;3.88;;;1.42;;
70733;SDS011;58320;48.804;9.252;2022-09-09T03:11:51;4.47;;;1.77;;
70733;SDS011;58320;48.804;9.252;2022-09-09T03:14:17;4.43;;;1.40;;
70733;SDS011;58320;48.804;9.252;2022-09-09T03:16:46;4.00;;;1.33;;
70733;SDS011;58320;48.804;9.252;2022-09-09T03:19:13;4.30;;;1.30;;
70733;SDS011;58320;48.804;9.252;2022-09-09T03:21:39;4.82;;;1.20;;
70733;SDS011;58320;48.804;9.252;2022-09-09T03:24:04;4.32;;;1.15;;
70733;SDS011;58320;48.804;9.252;2022-09-09T03:26:31;3.30;;;1.10;;
70733;SDS011;58320;48.804;9.252;2022-09-09T03:28:58;5.32;;;1.40;;
70733;SDS011;58320;48.804;9.252;2022-09-09T03:31:25;6.25;;;1.30;;
70733;SDS011;58320;48.804;9.252;2022-09-09T03:33:55;3.05;;;1.10;;
70733;SDS011;58320;48.804;9.252;2022-09-09T03:36:23;8.00;;;1.30;;
70733;SDS011;58320;48.804;9.252;2022-09-09T03:38:51;3.60;;;1.20;;
70733;SDS011;58320;48.804;9.252;2022-09-09T03:41:17;3.65;;;1.38;;
70733;SDS011;58320;48.804;9.252;2022-09-09T03:43:43;6.03;;;1.30;;
70733;SDS011;58320;48.804;9.252;2022-09-09T03:46:09;5.20;;;1.40;;
70733;SDS011;58320;48.804;9.252;2022-09-09T03:48:35;2.85;;;1.27;;
70733;SDS011;58320;48.804;9.252;2022-09-09T03:51:01;2.53;;;1.10;;
70733;SDS011;58320;48.804;9.252;2022-09-09T03:53:28;4.95;;;1.40;;
70733;SDS011;58320;48.804;9.252;2022-09-09T03:55:55;3.50;;;1.20;;
70733;SDS011;58320;48.804;9.252;2022-09-09T03:58:24;5.30;;;1.60;;
70733;SDS011;58320;48.804;9.252;2022-09-09T04:03:29;3.50;;;1.23;;
70733;SDS011;58320;48.804;9.252;2022-09-09T04:05:56;3.50;;;1.17;;
70733;SDS011;58320;48.804;9.252;2022-09-09T04:08:24;3.58;;;1.55;;
70733;SDS011;58320;48.804;9.252;2022-09-09T04:10:50;3.30;;;1.38;;
70733;SDS011;58320;48.804;9.252;2022-09-09T04:13:17;7.23;;;1.63;;
70733;SDS011;58320;48.804;9.252;2022-09-09T04:15:50;3.38;;;1.50;;
70733;SDS011;58320;48.804;9.252;2022-09-09T04:18:21;3.15;;;1.38;;
70733;SDS011;58320;48.804;9.252;2022-09-09T04:20:48;3.90;;;1.60;;
70733;SDS011;58320;48.804;9.252;2022-09-09T04:23:15;4.43;;;1.58;;
70733;SDS011;58320;48.804;9.252;2022-09-09T04:25:53;5.80;;;1.57;;
70733;SDS011;58320;48.804;9.252;2022-09-09T04:28:21;4.53;;;1.30;;
70733;SDS011;58320;48.804;9.252;2022-09-09T04:30:50;4.68;;;1.52;;
70733;SDS011;58320;48.804;9.252;2022-09-09T04:33:17;3.55;;;1.50;;
70733;SDS011;58320;48.804;9.252;2022-09-09T04:35:44;5.03;;;1.40;;
70733;SDS011;58320;48.804;9.252;2022-09-09T04:38:13;6.17;;;1.67;;
70733;SDS011;58320;48.804;9.252;2022-09-09T04:40:43;3.63;;;1.40;;
70733;SDS011;58320;48.804;9.252;2022-09-09T04:43:12;4.30;;;1.60;;
70733;SDS011;58320;48.804;9.252;2022-09-09T04:45:39;4.95;;;1.58;;
70733;SDS011;58320;48.804;9.252;2022-09-09T04:48:06;3.90;;;1.50;;
70733;SDS011;58320;48.804;9.252;2022-09-09T04:50:32;3.97;;;1.40;;
70733;SDS011;58320;48.804;9.252;2022-09-09T04:53:02;5.88;;;1.60;;
70733;SDS011;58320;48.804;9.252;2022-09-09T04:55:29;3.53;;;1.40;;
70733;SDS011;58320;48.804;9.252;2022-09-09T04:57:56;5.63;;;1.55;;
70733;SDS011;58320;48.804;9.252;2022-09-09T05:00:22;4.13;;;1.55;;
70733;SDS011;58320;48.804;9.252;2022-09-09T05:02:49;6.53;;;1.63;;
70733;SDS011;58320;48.804;9.252;2022-09-09T05:05:16;5.53;;;1.50;;
70733;SDS011;58320;48.804;9.252;2022-09-09T05:07:42;4.45;;;1.70;;
70733;SDS011;58320;48.804;9.252;2022-09-09T05:10:08;3.38;;;1.40;;
70733;SDS011;58320;48.804;9.252;2022-09-09T05:12:35;5.68;;;1.42;;
70733;SDS011;58320;48.804;9.252;2022-09-09T05:15:01;4.57;;;2.07;;
70733;SDS011;58320;48.804;9.252;2022-09-09T05:17:27;3.75;;;1.80;;
70733;SDS011;58320;48.804;9.252;2022-09-09T05:19:53;4.47;;;1.48;;
70733;SDS011;58320;48.804;9.252;2022-09-09T05:22:19;4.30;;;1.67;;
70733;SDS011;58320;48.804;9.252;2022-09-09T05:24:46;2.73;;;1.10;;
70733;SDS011;58320;48.804;9.252;2022-09-09T05:27:13;4.75;;;1.73;;
70733;SDS011;58320;48.804;9.252;2022-09-09T05:29:39;4.75;;;1.70;;
70733;SDS011;58320;48.804;9.252;2022-09-09T05:32:08;2.88;;;1.35;;
70733;SDS011;58320;48.804;9.252;2022-09-09T05:34:34;5.70;;;1.40;;
70733;SDS011;58320;48.804;9.252;2022-09-09T05:37:02;4.53;;;1.33;;
70733;SDS011;58320;48.804;9.252;2022-09-09T05:39:29;4.07;;;1.42;;
70733;SDS011;58320;48.804;9.252;2022-09-09T05:41:55;3.83;;;1.40;;
70733;SDS011;58320;48.804;9.252;2022-09-09T05:44:21;5.07;;;1.77;;
70733;SDS011;58320;48.804;9.252;2022-09-09T05:46:49;5.03;;;1.30;;
70733;SDS011;58320;48.804;9.252;2022-09-09T05:49:14;4.80;;;1.63;;
70733;SDS011;58320;48.804;9.252;2022-09-09T05:51:40;5.43;;;1.33;;
70733;SDS011;58320;48.804;9.252;2022-09-09T05:54:08;5.13;;;1.65;;
70733;SDS011;58320;48.804;9.252;2022-09-09T05:56:34;3.17;;;1.30;;
70733;SDS011;58320;48.804;9.252;2022-09-09T05:59:00;4.43;;;1.30;;
70733;SDS011;58320;48.804;9.252;2022-09-09T06:01:30;3.63;;;1.25;;
70733;SDS011;58320;48.804;9.252;2022-09-09T06:03:59;5.03;;;1.50;;
70733;SDS011;58320;48.804;9.252;2022-09-09T06:06:26;3.27;;;1.50;;
70733;SDS011;58320;48.804;9.252;2022-09-09T06:08:56;2.80;;;1.20;;
70733;SDS011;58320;48.804;9.252;2022-09-09T06:11:26;5.68;;;1.50;;
70733;SDS011;58320;48.804;9.252;2022-09-09T06:13:56;3.47;;;1.35;;
70733;SDS011;58320;48.804;9.252;2022-09-09T06:16:23;5.78;;;1.75;;
70733;SDS011;58320;48.804;9.252;2022-09-09T06:18:51;3.40;;;1.03;;
70733;SDS011;58320;48.804;9.252;2022-09-09T06:21:23;3.20;;;1.50;;
70733;SDS011;58320;48.804;9.252;2022-09-09T06:23:55;3.83;;;1.30;;
70733;SDS011;58320;48.804;9.252;2022-09-09T06:26:34;4.78;;;1.52;;
70733;SDS011;58320;48.804;9.252;2022-09-09T06:29:05;5.13;;;1.52;;
70733;SDS011;58320;48.804;9.252;2022-09-09T06:31:32;5.60;;;1.40;;
70733;SDS011;58320;48.804;9.252;2022-09-09T06:34:01;3.28;;;1.20;;
70733;SDS011;58320;48.804;9.252;2022-09-09T06:36:31;4.25;;;1.60;;
70733;SDS011;58320;48.804;9.252;2022-09-09T06:39:00;6.10;;;1.55;;
70733;SDS011;58320;48.804;9.252;2022-09-09T06:41:27;6.20;;;1.40;;
70733;SDS011;58320;48.804;9.252;2022-09-09T06:43:54;5.83;;;1.47;;
70733;SDS011;58320;48.804;9.252;2022-09-09T06:46:21;5.25;;;1.50;;
70733;SDS011;58320;48.804;9.252;2022-09-09T06:48:53;3.20;;;1.60;;
70733;SDS011;58320;48.804;9.252;2022-09-09T06:51:21;5.68;;;1.35;;
70733;SDS011;58320;48.804;9.252;2022-09-09T06:53:53;3.55;;;1.45;;
70733;SDS011;58320;48.804;9.252;2022-09-09T06:56:30;4.67;;;1.40;;
70733;SDS011;58320;48.804;9.252;2022-09-09T06:59:03;5.22;;;1.50;;
70733;SDS011;58320;48.804;9.252;2022-09-09T07:01:35;3.13;;;1.20;;
70733;SDS011;58320;48.804;9.252;2022-09-09T07:04:06;4.10;;;1.60;;
70733;SDS011;58320;48.804;9.252;2022-09-09T07:06:37;3.42;;;1.30;;
70733;SDS011;58320;48.804;9.252;2022-09-09T07:09:06;6.87;;;1.70;;
70733;SDS011;58320;48.804;9.252;2022-09-09T07:11:39;2.50;;;1.20;;
70733;SDS011;58320;48.804;9.252;2022-09-09T07:14:17;3.42;;;1.40;;
70733;SDS011;58320;48.804;9.252;2022-09-09T07:16:44;4.25;;;1.40;;
70733;SDS011;58320;48.804;9.252;2022-09-09T07:19:11;4.95;;;1.25;;
70733;SDS011;58320;48.804;9.252;2022-09-09T07:21:37;4.63;;;1.47;;
70733;SDS011;58320;48.804;9.252;2022-09-09T07:24:05;3.60;;;1.27;;
70733;SDS011;58320;48.804;9.252;2022-09-09T07:26:35;3.65;;;0.95;;
70733;SDS011;58320;48.804;9.252;2022-09-09T07:29:03;3.03;;;1.30;;
70733;SDS011;58320;48.804;9.252;2022-09-09T07:31:30;5.23;;;1.20;;
70733;SDS011;58320;48.804;9.252;2022-09-09T07:33:59;3.33;;;1.35;;
70733;SDS011;58320;48.804;9.252;2022-09-09T07:36:26;4.20;;;1.45;;
70733;SDS011;58320;48.804;9.252;2022-09-09T07:38:56;2.90;;;1.20;;
70733;SDS011;58320;48.804;9.252;2022-09-09T07:41:32;5.15;;;1.60;;
70733;SDS011;58320;48.804;9.252;2022-09-09T07:44:20;7.37;;;1.57;;
70733;SDS011;58320;48.804;9.252;2022-09-09T07:46:48;3.72;;;1.67;;
70733;SDS011;58320;48.804;9.252;2022-09-09T07:49:14;3.50;;;1.30;;
70733;SDS011;58320;48.804;9.252;2022-09-09T07:51:41;4.15;;;1.55;;
70733;SDS011;58320;48.804;9.252;2022-09-09T07:54:11;3.83;;;1.50;;
70733;SDS011;58320;48.804;9.252;2022-09-09T07:56:39;3.90;;;1.63;;
70733;SDS011;58320;48.804;9.252;2022-09-09T07:59:05;5.00;;;1.58;;
70733;SDS011;58320;48.804;9.252;2022-09-09T08:01:42;3.45;;;1.30;;
70733;SDS011;58320;48.804;9.252;2022-09-09T08:04:12;3.72;;;1.40;;
70733;SDS011;58320;48.804;9.252;2022-09-09T08:06:43;4.93;;;1.50;;
70733;SDS011;58320;48.804;9.252;2022-09-09T08:09:15;4.33;;;1.50;;
70733;SDS011;58320;48.804;9.252;2022-09-09T08:11:41;3.75;;;1.40;;
70733;SDS011;58320;48.804;9.252;2022-09-09T08:14:08;5.32;;;1.92;;
70733;SDS011;58320;48.804;9.252;2022-09-09T08:16:37;4.10;;;1.50;;
70733;SDS011;58320;48.804;9.252;2022-09-09T08:19:08;5.43;;;1.40;;
70733;SDS011;58320;48.804;9.252;2022-09-09T08:21:35;4.07;;;1.40;;
70733;SDS011;58320;48.804;9.252;2022-09-09T08:24:05;4.13;;;1.40;;
70733;SDS011;58320;48.804;9.252;2022-09-09T08:26:43;3.95;;;1.27;;
70733;SDS011;58320;48.804;9.252;2022-09-09T08:29:12;4.70;;;1.33;;
70733;SDS011;58320;48.804;9.252;2022-09-09T08:31:39;4.93;;;1.50;;
70733;SDS011;58320;48.804;9.252;2022-09-09T08:34:10;4.55;;;1.58;;
70733;SDS011;58320;48.804;9.252;2022-09-09T08:36:38;3.37;;;1.63;;
70733;SDS011;58320;48.804;9.252;2022-09-09T08:39:10;5.53;;;1.50;;
70733;SDS011;58320;48.804;9.252;2022-09-09T08:50:35;3.77;;;1.30;;
70733;SDS011;58320;48.804;9.252;2022-09-09T08:55:59;5.75;;;1.33;;
70733;SDS011;58320;48.804;9.252;2022-09-09T08:58:34;6.03;;;1.30;;
70733;SDS011;58320;48.804;9.252;2022-09-09T09:07:08;6.23;;;1.53;;
70733;SDS011;58320;48.804;9.252;2022-09-09T09:12:42;3.70;;;1.02;;
70733;SDS011;58320;48.804;9.252;2022-09-09T09:15:23;4.45;;;1.38;;
70733;SDS011;58320;48.804;9.252;2022-09-09T09:17:51;4.25;;;1.30;;
70733;SDS011;58320;48.804;9.252;2022-09-09T09:20:19;5.10;;;1.08;;
70733;SDS011;58320;48.804;9.252;2022-09-09T09:22:57;4.13;;;1.00;;
70733;SDS011;58320;48.804;9.252;2022-09-09T09:25:31;4.03;;;0.93;;
70733;SDS011;58320;48.804;9.252;2022-09-09T09:30:46;5.30;;;1.17;;
70733;SDS011;58320;48.804;9.252;2022-09-09T09:33:32;2.28;;;1.00;;
70733;SDS011;58320;48.804;9.252;2022-09-09T09:36:11;5.13;;;1.10;;
70733;SDS011;58320;48.804;9.252;2022-09-09T09:38:40;3.93;;;1.00;;
70733;SDS011;58320;48.804;9.252;2022-09-09T09:44:02;3.08;;;0.88;;
70733;SDS011;58320;48.804;9.252;2022-09-09T09:46:29;2.67;;;0.77;;
70733;SDS011;58320;48.804;9.252;2022-09-09T09:48:57;3.80;;;1.02;;
70733;SDS011;58320;48.804;9.252;2022-09-09T09:51:30;2.40;;;0.63;;
70733;SDS011;58320;48.804;9.252;2022-09-09T09:56:55;4.10;;;0.90;;
70733;SDS011;58320;48.804;9.252;2022-09-09T10:01:54;3.28;;;0.88;;
70733;SDS011;58320;48.804;9.252;2022-09-09T10:04:36;2.77;;;0.70;;
70733;SDS011;58320;48.804;9.252;2022-09-09T10:07:09;2.60;;;0.90;;
70733;SDS011;58320;48.804;9.252;2022-09-09T10:09:37;4.00;;;0.80;;
70733;SDS011;58320;48.804;9.252;2022-09-09T10:14:52;3.87;;;1.20;;
70733;SDS011;58320;48.804;9.252;2022-09-09T10:20:38;3.22;;;0.93;;
70733;SDS011;58320;48.804;9.252;2022-09-09T10:57:13;3.50;;;1.23;;
70733;SDS011;58320;48.804;9.252;2022-09-09T10:59:57;5.40;;;1.30;;
70733;SDS011;58320;48.804;9.252;2022-09-09T11:02:32;3.83;;;1.20;;
70733;SDS011;58320;48.804;9.252;2022-09-09T11:05:02;6.50;;;1.50;;
70733;SDS011;58320;48.804;9.252;2022-09-09T11:07:40;3.67;;;1.10;;
70733;SDS011;58320;48.804;9.252;2022-09-09T11:10:49;3.88;;;0.90;;
70733;SDS011;58320;48.804;9.252;2022-09-09T11:13:09;3.50;;;1.02;;
70733;SDS011;58320;48.804;9.252;2022-09-09T11:15:48;3.40;;;1.00;;
70733;SDS011;58320;48.804;9.252;2022-09-09T11:18:21;3.03;;;1.00;;
70733;SDS011;58320;48.804;9.252;2022-09-09T11:20:49;4.43;;;1.20;;
70733;SDS011;58320;48.804;9.252;2022-09-09T11:23:22;3.40;;;1.20;;
70733;SDS011;58320;48.804;9.252;2022-09-09T11:26:04;5.00;;;0.80;;
70733;SDS011;58320;48.804;9.252;2022-09-09T11:36:58;3.27;;;0.80;;
70733;SDS011;58320;48.804;9.252;2022-09-09T11:42:29;3.03;;;0.93;;
70733;SDS011;58320;48.804;9.252;2022-09-09T11:44:55;3.08;;;0.75;;
70733;SDS011;58320;48.804;9.252;2022-09-09T11:47:23;2.95;;;0.90;;
70733;SDS011;58320;48.804;9.252;2022-09-09T11:50:06;2.17;;;0.80;;
70733;SDS011;58320;48.804;9.252;2022-09-09T11:52:43;3.28;;;0.80;;
70733;SDS011;58320;48.804;9.252;2022-09-09T11:55:19;2.92;;;0.80;;
70733;SDS011;58320;48.804;9.252;2022-09-09T11:57:57;2.60;;;0.73;;
70733;SDS011;58320;48.804;9.252;2022-09-09T12:00:41;2.85;;;0.90;;
70733;SDS011;58320;48.804;9.252;2022-09-09T12:08:52;2.30;;;0.90;;
70733;SDS011;58320;48.804;9.252;2022-09-09T12:11:33;2.00;;;0.77;;
70733;SDS011;58320;48.804;9.252;2022-09-09T12:13:59;2.20;;;0.60;;
70733;SDS011;58320;48.804;9.252;2022-09-09T12:16:34;2.38;;;0.85;;
70733;SDS011;58320;48.804;9.252;2022-09-09T12:19:04;1.60;;;0.60;;
70733;SDS011;58320;48.804;9.252;2022-09-09T12:30:45;2.80;;;0.90;;
70733;SDS011;58320;48.804;9.252;2022-09-09T12:33:25;1.93;;;0.70;;
70733;SDS011;58320;48.804;9.252;2022-09-09T12:36:02;1.50;;;0.53;;
70733;SDS011;58320;48.804;9.252;2022-09-09T12:38:34;2.88;;;0.60;;
70733;SDS011;58320;48.804;9.252;2022-09-09T12:41:02;4.63;;;0.68;;
70733;SDS011;58320;48.804;9.252;2022-09-09T12:43:28;1.65;;;0.60;;
70733;SDS011;58320;48.804;9.252;2022-09-09T12:45:56;3.05;;;0.70;;
70733;SDS011;58320;48.804;9.252;2022-09-09T12:48:37;1.58;;;0.55;;
70733;SDS011;58320;48.804;9.252;2022-09-09T12:51:15;4.53;;;0.70;;
70733;SDS011;58320;48.804;9.252;2022-09-09T12:53:52;3.37;;;0.60;;
70733;SDS011;58320;48.804;9.252;2022-09-09T12:56:19;2.33;;;0.60;;
70733;SDS011;58320;48.804;9.252;2022-09-09T12:58:51;2.05;;;0.52;;
70733;SDS011;58320;48.804;9.252;2022-09-09T13:01:21;5.05;;;0.70;;
70733;SDS011;58320;48.804;9.252;2022-09-09T13:03:52;2.20;;;0.80;;
70733;SDS011;58320;48.804;9.252;2022-09-09T13:06:20;2.80;;;0.60;;
70733;SDS011;58320;48.804;9.252;2022-09-09T13:08:52;3.50;;;0.70;;
70733;SDS011;58320;48.804;9.252;2022-09-09T13:11:30;2.22;;;0.75;;
70733;SDS011;58320;48.804;9.252;2022-09-09T13:14:24;3.80;;;0.68;;
70733;SDS011;58320;48.804;9.252;2022-09-09T13:16:58;2.30;;;0.60;;
70733;SDS011;58320;48.804;9.252;2022-09-09T13:19:27;4.75;;;0.80;;
70733;SDS011;58320;48.804;9.252;2022-09-09T13:21:59;4.03;;;0.63;;
70733;SDS011;58320;48.804;9.252;2022-09-09T13:25:40;2.93;;;0.60;;
70733;SDS011;58320;48.804;9.252;2022-09-09T13:27:58;2.90;;;0.70;;
70733;SDS011;58320;48.804;9.252;2022-09-09T13:30:34;2.72;;;0.80;;
70733;SDS011;58320;48.804;9.252;2022-09-09T13:35:55;3.13;;;0.60;;
70733;SDS011;58320;48.804;9.252;2022-09-09T13:38:28;2.95;;;0.88;;
70733;SDS011;58320;48.804;9.252;2022-09-09T13:41:01;3.20;;;0.70;;
70733;SDS011;58320;48.804;9.252;2022-09-09T13:43:36;2.07;;;0.70;;
70733;SDS011;58320;48.804;9.252;2022-09-09T13:46:28;2.13;;;0.57;;
70733;SDS011;58320;48.804;9.252;2022-09-09T13:49:00;3.35;;;0.80;;
70733;SDS011;58320;48.804;9.252;2022-09-09T13:51:40;3.67;;;0.90;;
70733;SDS011;58320;48.804;9.252;2022-09-09T13:54:12;2.00;;;0.65;;
70733;SDS011;58320;48.804;9.252;2022-09-09T13:56:41;1.92;;;0.73;;
70733;SDS011;58320;48.804;9.252;2022-09-09T13:59:15;3.13;;;0.80;;
70733;SDS011;58320;48.804;9.252;2022-09-09T14:01:44;2.17;;;0.70;;
70733;SDS011;58320;48.804;9.252;2022-09-09T14:04:11;1.88;;;0.70;;
70733;SDS011;58320;48.804;9.252;2022-09-09T14:06:37;3.17;;;0.90;;
70733;SDS011;58320;48.804;9.252;2022-09-09T14:09:10;3.70;;;0.65;;
70733;SDS011;58320;48.804;9.252;2022-09-09T14:11:38;4.25;;;0.98;;
70733;SDS011;58320;48.804;9.252;2022-09-09T14:14:05;2.03;;;0.60;;
70733;SDS011;58320;48.804;9.252;2022-09-09T14:16:31;1.93;;;0.67;;
70733;SDS011;58320;48.804;9.252;2022-09-09T14:18:57;2.90;;;0.70;;
70733;SDS011;58320;48.804;9.252;2022-09-09T14:21:24;1.98;;;0.60;;
70733;SDS011;58320;48.804;9.252;2022-09-09T14:23:51;2.33;;;0.73;;
70733;SDS011;58320;48.804;9.252;2022-09-09T14:26:23;2.45;;;0.80;;
70733;SDS011;58320;48.804;9.252;2022-09-09T14:28:49;2.93;;;0.67;;
70733;SDS011;58320;48.804;9.252;2022-09-09T14:31:16;2.67;;;0.50;;
70733;SDS011;58320;48.804;9.252;2022-09-09T14:33:43;2.83;;;0.70;;
70733;SDS011;58320;48.804;9.252;2022-09-09T14:36:16;2.72;;;0.75;;
70733;SDS011;58320;48.804;9.252;2022-09-09T14:38:44;2.17;;;0.60;;
70733;SDS011;58320;48.804;9.252;2022-09-09T14:41:11;3.75;;;0.80;;
70733;SDS011;58320;48.804;9.252;2022-09-09T14:43:45;3.45;;;0.90;;
70733;SDS011;58320;48.804;9.252;2022-09-09T14:46:18;2.75;;;1.00;;
70733;SDS011;58320;48.804;9.252;2022-09-09T14:48:48;1.13;;;0.40;;
70733;SDS011;58320;48.804;9.252;2022-09-09T14:51:21;2.73;;;0.80;;
70733;SDS011;58320;48.804;9.252;2022-09-09T14:53:59;3.65;;;0.90;;
70733;SDS011;58320;48.804;9.252;2022-09-09T14:56:30;1.52;;;0.68;;
70733;SDS011;58320;48.804;9.252;2022-09-09T14:59:02;2.83;;;0.90;;
70733;SDS011;58320;48.804;9.252;2022-09-09T15:01:30;2.60;;;0.90;;
70733;SDS011;58320;48.804;9.252;2022-09-09T15:04:02;2.20;;;0.73;;
70733;SDS011;58320;48.804;9.252;2022-09-09T15:06:33;4.97;;;0.83;;
70733;SDS011;58320;48.804;9.252;2022-09-09T15:09:08;3.47;;;0.90;;
70733;SDS011;58320;48.804;9.252;2022-09-09T15:11:35;2.42;;;0.90;;
70733;SDS011;58320;48.804;9.252;2022-09-09T15:14:03;2.33;;;0.82;;
70733;SDS011;58320;48.804;9.252;2022-09-09T15:16:31;2.00;;;0.68;;
70733;SDS011;58320;48.804;9.252;2022-09-09T15:19:03;3.35;;;0.80;;
70733;SDS011;58320;48.804;9.252;2022-09-09T15:21:35;2.50;;;0.70;;
70733;SDS011;58320;48.804;9.252;2022-09-09T15:24:03;2.42;;;1.00;;
70733;SDS011;58320;48.804;9.252;2022-09-09T15:26:33;2.07;;;0.93;;
70733;SDS011;58320;48.804;9.252;2022-09-09T15:29:03;1.92;;;0.60;;
70733;SDS011;58320;48.804;9.252;2022-09-09T15:31:30;2.63;;;0.60;;
70733;SDS011;58320;48.804;9.252;2022-09-09T15:33:58;2.83;;;0.60;;
70733;SDS011;58320;48.804;9.252;2022-09-09T15:36:41;3.58;;;1.00;;
70733;SDS011;58320;48.804;9.252;2022-09-09T15:39:12;3.00;;;0.70;;
70733;SDS011;58320;48.804;9.252;2022-09-09T15:41:42;3.10;;;0.83;;
70733;SDS011;58320;48.804;9.252;2022-09-09T15:44:13;3.33;;;0.85;;
70733;SDS011;58320;48.804;9.252;2022-09-09T15:46:42;4.63;;;0.88;;
70733;SDS011;58320;48.804;9.252;2022-09-09T15:49:12;4.90;;;1.17;;
70733;SDS011;58320;48.804;9.252;2022-09-09T15:51:46;4.65;;;1.10;;
70733;SDS011;58320;48.804;9.252;2022-09-09T15:54:33;4.20;;;0.60;;
70733;SDS011;58320;48.804;9.252;2022-09-09T15:57:05;1.60;;;0.70;;
70733;SDS011;58320;48.804;9.252;2022-09-09T15:59:35;3.42;;;0.70;;
70733;SDS011;58320;48.804;9.252;2022-09-09T16:02:03;2.50;;;0.68;;
70733;SDS011;58320;48.804;9.252;2022-09-09T16:04:37;2.38;;;0.75;;
70733;SDS011;58320;48.804;9.252;2022-09-09T16:07:05;3.40;;;0.80;;
70733;SDS011;58320;48.804;9.252;2022-09-09T16:09:33;3.07;;;0.70;;
70733;SDS011;58320;48.804;9.252;2022-09-09T16:12:09;2.00;;;0.70;;
70733;SDS011;58320;48.804;9.252;2022-09-09T16:14:38;3.95;;;0.95;;
70733;SDS011;58320;48.804;9.252;2022-09-09T16:17:09;2.25;;;0.70;;
70733;SDS011;58320;48.804;9.252;2022-09-09T16:19:40;4.10;;;1.02;;
70733;SDS011;58320;48.804;9.252;2022-09-09T16:22:07;1.92;;;0.60;;
70733;SDS011;58320;48.804;9.252;2022-09-09T16:24:35;2.43;;;0.80;;
70733;SDS011;58320;48.804;9.252;2022-09-09T16:27:07;3.83;;;1.00;;
70733;SDS011;58320;48.804;9.252;2022-09-09T16:29:34;3.50;;;0.80;;
70733;SDS011;58320;48.804;9.252;2022-09-09T16:32:04;5.10;;;1.35;;
70733;SDS011;58320;48.804;9.252;2022-09-09T16:34:31;2.17;;;0.73;;
70733;SDS011;58320;48.804;9.252;2022-09-09T16:36:59;3.22;;;0.90;;
70733;SDS011;58320;48.804;9.252;2022-09-09T16:39:31;3.00;;;0.70;;
70733;SDS011;58320;48.804;9.252;2022-09-09T16:42:01;1.93;;;0.70;;
70733;SDS011;58320;48.804;9.252;2022-09-09T16:44:31;3.55;;;0.80;;
70733;SDS011;58320;48.804;9.252;2022-09-09T16:46:58;2.25;;;0.60;;
70733;SDS011;58320;48.804;9.252;2022-09-09T16:49:25;2.88;;;0.60;;
70733;SDS011;58320;48.804;9.252;2022-09-09T16:51:53;2.35;;;0.70;;
70733;SDS011;58320;48.804;9.252;2022-09-09T16:54:23;3.43;;;0.67;;
70733;SDS011;58320;48.804;9.252;2022-09-09T16:56:52;1.80;;;0.60;;
70733;SDS011;58320;48.804;9.252;2022-09-09T16:59:22;1.13;;;0.50;;
70733;SDS011;58320;48.804;9.252;2022-09-09T17:01:49;1.50;;;0.55;;
70733;SDS011;58320;48.804;9.252;2022-09-09T17:04:17;4.30;;;0.52;;
70733;SDS011;58320;48.804;9.252;2022-09-09T17:06:47;1.63;;;0.57;;
70733;SDS011;58320;48.804;9.252;2022-09-09T17:09:16;2.37;;;0.50;;
70733;SDS011;58320;48.804;9.252;2022-09-09T17:11:44;2.47;;;0.50;;
70733;SDS011;58320;48.804;9.252;2022-09-09T17:14:11;0.98;;;0.40;;
70733;SDS011;58320;48.804;9.252;2022-09-09T17:16:40;2.10;;;0.50;;
70733;SDS011;58320;48.804;9.252;2022-09-09T17:19:07;1.33;;;0.50;;
70733;SDS011;58320;48.804;9.252;2022-09-09T17:21:34;1.40;;;0.60;;
70733;SDS011;58320;48.804;9.252;2022-09-09T17:24:00;2.03;;;0.73;;
70733;SDS011;58320;48.804;9.252;2022-09-09T17:26:29;2.92;;;0.63;;
70733;SDS011;58320;48.804;9.252;2022-09-09T17:28:57;2.28;;;0.60;;
70733;SDS011;58320;48.804;9.252;2022-09-09T17:31:26;1.83;;;0.63;;
70733;SDS011;58320;48.804;9.252;2022-09-09T17:33:53;1.85;;;0.60;;
70733;SDS011;58320;48.804;9.252;2022-09-09T17:36:28;2.30;;;0.70;;
70733;SDS011;58320;48.804;9.252;2022-09-09T17:38:56;2.20;;;0.90;;
70733;SDS011;58320;48.804;9.252;2022-09-09T17:41:26;1.92;;;0.70;;
70733;SDS011;58320;48.804;9.252;2022-09-09T17:44:03;3.45;;;1.00;;
70733;SDS011;58320;48.804;9.252;2022-09-09T17:46:30;2.88;;;0.75;;
70733;SDS011;58320;48.804;9.252;2022-09-09T17:49:00;3.13;;;0.70;;
70733;SDS011;58320;48.804;9.252;2022-09-09T17:51:30;1.75;;;0.70;;
70733;SDS011;58320;48.804;9.252;2022-09-09T17:53:59;3.30;;;0.70;;
70733;SDS011;58320;48.804;9.252;2022-09-09T17:56:37;2.40;;;0.80;;
70733;SDS011;58320;48.804;9.252;2022-09-09T17:59:05;2.28;;;0.85;;
70733;SDS011;58320;48.804;9.252;2022-09-09T18:01:38;4.13;;;0.70;;
70733;SDS011;58320;48.804;9.252;2022-09-09T18:04:07;2.28;;;0.88;;
70733;SDS011;58320;48.804;9.252;2022-09-09T18:06:36;3.00;;;1.20;;